Webster Springs, WV

9:29 AM EDT on October 20, 2014 (GMT -0400)
Snowshoe | Change Station
CLOSE
Current Station
Personal Weather Station
Location: Snowshoe, WV
Elevation: 3261 ft
Nearby Weather Stations
Active Advisory: Winter Weather Statement

Elev 3261 ft 38.42 °N, 80.02 °W | Updated 4 minutes ago

Partly Cloudy
Partly Cloudy
42.8 °F
Feels Like 40 °F
N
5.0
Wind Variable Wind from SW

Today
High -- | Low -- °F
--% Chance of Precip.
Yesterday
High -- | Low -- °F
Precip. -- in
7:35 AM 6:36 PM
Waning Crescent, 11% visible
Pressure 30.07 in
Visibility 9.0 miles
Clouds Clear
Windchill 40 °F
Dew Point 26 °F
Humidity 51%
Rainfall 0.00 in
Snow Depth Not available.
UV 1 out of 12
Pollen 1.10 out of 12
Air Quality Not available.
Flu Activity Sporadic
METAR KW22 201315Z AUTO 00000KT 9SM CLR 03/02 A3007 RMK AO2

More Conditions Fewer Conditions

Pressure 30.07 in
Visibility 9.0 miles
Clouds Clear
Windchill 40 °F
Dew Point 26 °F
Humidity 51%
Rainfall 0.00 in
Snow Depth Not available.
UV 1 out of 12
Pollen 1.10 out of 12
Air Quality Not available.
Flu Activity Sporadic
METAR KW22 201315Z AUTO 00000KT 9SM CLR 03/02 A3007 RMK AO2

More Conditions Fewer Conditions

10-Day Weather Forecast

Almanac

Astronomy

Oct. 20, 2014 Rise Set
Actual Time 7:35 AM EDT 6:36 PM EDT
Civil Twilight 7:08 AM EDT 7:03 PM EDT
Nautical Twilight 6:37 AM EDT 7:34 PM EDT
Astronomical Twilight 6:07 AM EDT 8:04 PM EDT
Moon 4:24 AM EDT 4:56 PM EDT
Length of Visible Light 11h 54m
Length of Day
11h 00m
Waning Crescent, 11% of the Moon is Illuminated
Today
Waning Crescent
Oct 23
New
Oct 30
First Quarter
Nov 6
Full
Nov 14
Last Quarter

Today's Extremes

State Highs State Lows

Community

WunderPhotos

Upload Photos

1,763,378 photos uploaded!

Nearby

Snow Depth

Station Depth Elevation
No new snow has been reported.

Earthquake Activity

City Distance Mag. Time & Date
No recent earthquake activity has been reported nearby.
Minimum magnitude displayed is 2.5.

Coastal Water Temperatures

Place Temperature
No Stations Reporting

Nearby Weather Stations